Latest  Newer  Older  Last 2 hours animation  Current image  Latest image 
Rain/snow radar  Infrared sat images 
Real-time lightning map

All time is UTC (add 2 hours to UTC in wintertime, 3 hours to UTC in DST for Latvia local time)

2018/10/15 18:50 EVRA 151850Z 17009KT CAVOK 10/06 Q1021 R18/090095 NOSIG
2018/10/15 18:50 EVLA 151850Z AUTO 16005KT 9999 NCD 15/09 Q1019
2018/10/15 18:50 EVVA 151850Z AUTO 15003KT CAVOK 10/08 Q1019
2018/10/15 18:50 EYKA 151850Z 16007KT CAVOK 13/05 Q1023
2018/10/15 18:50 EYPA 151850Z 16012G23KT CAVOK 15/08 Q1020
2018/10/15 18:50 EYSA 151850Z 18012KT CAVOK 12/05 Q1022 BLU NOSIG
2018/10/15 18:50 EYVI 151850Z 16010KT CAVOK 11/06 Q1025 NOSIG
2018/10/15 14:50 EEKA 151450Z 18005KT CAVOK 16/09 Q1018
2018/10/15 18:50 EEKE 151850Z AUTO VRB03KT 9999NDV NCD 10/09 Q1019
2018/10/15 12:50 EEPU 151250Z 21008KT 180V240 CAVOK 16/09 Q1021
2018/10/15 18:50 EETN 151850Z 21008KT CAVOK 12/08 Q1018 NOSIG
2018/10/15 18:50 EETU 151850Z AUTO 21011KT 9999 NCD 13/04 Q1021
   RIGA AIRPORT     EVRA               56 55N  023 58E   10   X     T          6 LV
   LIEPAJA INTL     EVLA        26406  56 31N  021 06E    4   X                8 LV
   VENTPILS         EVVA               57 21N  021 33E    6   X                8 LV
   KAUNAS           EYKA               54 54N  023 55E   77   X     T          6 LT
   PALANGA INTL     EYPA               55 55N  021 03E   10   X                6 LT
   SIAULIAI INTL    EYSA               55 54N  023 24E  135   X     T          6 LT
   VILNIUS INTL     EYVI        26730  54 38N  025 17E  197   X     T          6 LT
   KARDLA           EEKA        26116  58 59N  022 50E    4   X                8 EE
   KURESSAARE       EEKE               58 14N  022 31E    4   X                8 EE
   PARNU            EEPU               58 25N  024 28E   14   X                8 EE
   TALLINN          EETN        26038  59 24N  024 49E   40   X     T          8 EE
   TARTU            EETU               58 19N  026 41E   67   X                8 EE

cloud coverage image from sat24.com and METAR data from weather.noaa.gov